Latest Weather Observations for Thevenard

IDS60801

Issued at 5:35 pm CDT Saturday 29 November 2014 (issued every 30 minutes, with the page automatically refreshed every 10 minutes)

About weather observations | Map of weather stations | Latest weather observations for SA | Other Formats
Station Details ID: 018200 Name: THEVENARD WIND Lat: -32.18 Lon: 133.63 Height: 8.85 m
Data from the previous 72 hours. | See also: Recent months for locations in South Australia
Date/Time
CDT
Temp
°C
App
Temp
°C
Dew
Point
Rel
Hum
%
Delta-T
°C
Wind Press
QNH
hPa
Press
MSL
hPa
Rain
since 9 am
mm
Dir
 
Spd
km/h
Gust
km/h
Spd
kts
Gust
kts
29/05:30pm - - - - - SSE 20 24 11 13 - - -
29/05:00pm - - - - - SE 22 28 12 15 - - -
29/04:30pm - - - - - S 28 33 15 18 - - -
29/04:00pm - - - - - S 26 32 14 17 - - -
29/03:30pm - - - - - SSW 20 30 11 16 - - -
29/03:00pm - - - - - SSW 20 24 11 13 - - -
29/02:30pm - - - - - WSW 20 35 11 19 - - -
29/02:00pm - - - - - NNW 20 26 11 14 - - -
29/01:30pm - - - - - NNW 28 37 15 20 - - -
29/01:00pm - - - - - N 24 32 13 17 - - -
29/12:30pm - - - - - N 30 35 16 19 - - -
29/12:00pm - - - - - N 26 30 14 16 - - -
29/11:30am - - - - - N 32 37 17 20 - - -
29/11:00am - - - - - N 26 32 14 17 - - -
29/10:30am - - - - - N 22 28 12 15 - - -
29/10:00am - - - - - NNW 11 17 6 9 - - -
29/09:30am - - - - - NW 17 19 9 10 - - -
29/09:00am - - - - - N 19 20 10 11 - - -
29/08:30am - - - - - NE 32 43 17 23 - - -
29/08:00am - - - - - NE 28 32 15 17 - - -
29/07:30am - - - - - NE 26 32 14 17 - - -
29/07:00am - - - - - NE 28 33 15 18 - - -
29/06:30am - - - - - ENE 30 35 16 19 - - -
29/06:00am - - - - - ENE 32 37 17 20 - - -
29/05:30am - - - - - ENE 35 43 19 23 - - -
29/05:00am - - - - - ENE 37 44 20 24 - - -
29/04:54am - - - - - ENE 28 44 15 24 - - -
29/04:30am - - - - - E 20 22 11 12 - - -
29/04:00am - - - - - ENE 13 20 7 11 - - -
29/03:30am - - - - - SE 9 13 5 7 - - -
29/03:00am - - - - - S 9 11 5 6 - - -
29/02:30am - - - - - ESE 11 13 6 7 - - -
29/02:00am - - - - - E 11 11 6 6 - - -
29/01:30am - - - - - E 11 13 6 7 - - -
29/01:00am - - - - - ESE 17 19 9 10 - - -
29/12:30am - - - - - ESE 17 20 9 11 - - -
29/12:00am - - - - - ESE 13 15 7 8 - - -
 
Date/Time
CDT
Temp
°C
App
Temp
°C
Dew
Point
Rel
Hum
%
Delta-T
°C
Wind Press
QNH
hPa
Press
MSL
hPa
Rain
since 9 am
mm
Dir
 
Spd
km/h
Gust
km/h
Spd
kts
Gust
kts
28/11:30pm - - - - - ESE 15 17 8 9 - - -
28/11:00pm - - - - - ESE 20 22 11 12 - - -
28/10:30pm - - - - - SE 22 28 12 15 - - -
28/10:00pm - - - - - SE 22 24 12 13 - - -
28/09:30pm - - - - - SE 19 22 10 12 - - -
28/09:00pm - - - - - SSE 20 20 11 11 - - -
28/08:30pm - - - - - SSE 19 22 10 12 - - -
28/08:00pm - - - - - SSE 24 28 13 15 - - -
28/07:30pm - - - - - S 24 28 13 15 - - -
28/07:00pm - - - - - S 24 26 13 14 - - -
28/06:30pm - - - - - SSE 30 33 16 18 - - -
28/06:00pm - - - - - SSE 30 33 16 18 - - -
28/05:30pm - - - - - SSE 28 33 15 18 - - -
28/05:00pm - - - - - SSE 26 30 14 16 - - -
28/04:30pm - - - - - SSE 24 26 13 14 - - -
28/04:00pm - - - - - S 24 28 13 15 - - -
28/03:30pm - - - - - SSE 22 26 12 14 - - -
28/03:00pm - - - - - S 22 24 12 13 - - -
28/02:30pm - - - - - S 19 26 10 14 - - -
28/02:00pm - - - - - S 20 24 11 13 - - -
28/01:30pm - - - - - SSE 19 22 10 12 - - -
28/01:00pm - - - - - S 19 22 10 12 - - -
28/12:30pm - - - - - SSE 20 22 11 12 - - -
28/12:00pm - - - - - S 17 19 9 10 - - -
28/11:30am - - - - - S 9 11 5 6 - - -
28/11:00am - - - - - SSW 6 9 3 5 - - -
28/10:30am - - - - - NNW 6 7 3 4 - - -
28/10:00am - - - - - NE 13 17 7 9 - - -
28/09:30am - - - - - SE 11 13 6 7 - - -
28/09:00am - - - - - SE 11 13 6 7 - - -
28/08:30am - - - - - SE 11 17 6 9 - - -
28/08:00am - - - - - SE 13 17 7 9 - - -
28/07:30am - - - - - ESE 15 19 8 10 - - -
28/07:00am - - - - - ESE 15 20 8 11 - - -
28/06:30am - - - - - ESE 17 20 9 11 - - -
28/06:00am - - - - - ESE 19 22 10 12 - - -
28/05:30am - - - - - ESE 19 22 10 12 - - -
28/05:00am - - - - - ESE 17 22 9 12 - - -
28/04:30am - - - - - ESE 13 19 7 10 - - -
28/04:00am - - - - - E 20 28 11 15 - - -
28/03:30am - - - - - ESE 26 32 14 17 - - -
28/03:00am - - - - - ESE 26 32 14 17 - - -
28/02:30am - - - - - ESE 24 30 13 16 - - -
28/02:00am - - - - - ESE 22 32 12 17 - - -
28/01:30am - - - - - ESE 24 33 13 18 - - -
28/01:00am - - - - - ESE 24 30 13 16 - - -
28/12:30am - - - - - SE 20 24 11 13 - - -
28/12:00am - - - - - ESE 22 28 12 15 - - -
 
Date/Time
CDT
Temp
°C
App
Temp
°C
Dew
Point
Rel
Hum
%
Delta-T
°C
Wind Press
QNH
hPa
Press
MSL
hPa
Rain
since 9 am
mm
Dir
 
Spd
km/h
Gust
km/h
Spd
kts
Gust
kts
27/11:30pm - - - - - SE 20 28 11 15 - - -
27/11:00pm - - - - - SE 24 30 13 16 - - -
27/10:30pm - - - - - SE 24 32 13 17 - - -
27/10:00pm - - - - - SSE 28 32 15 17 - - -
27/09:30pm - - - - - SSE 32 39 17 21 - - -
27/09:00pm - - - - - SSE 32 39 17 21 - - -
27/08:30pm - - - - - SSE 35 39 19 21 - - -
27/08:00pm - - - - - SSE 37 44 20 24 - - -
27/07:30pm - - - - - SSE 41 48 22 26 - - -
27/07:00pm - - - - - SSE 43 50 23 27 - - -
27/06:30pm - - - - - SSE 44 54 24 29 - - -
27/06:00pm - - - - - S 44 52 24 28 - - -
27/05:30pm - - - - - S 43 50 23 27 - - -
27/05:00pm - - - - - S 39 44 21 24 - - -
27/04:30pm - - - - - S 41 46 22 25 - - -
27/04:00pm - - - - - S 39 44 21 24 - - -
27/03:30pm - - - - - S 37 43 20 23 - - -
27/03:00pm - - - - - S 35 43 19 23 - - -
27/02:30pm - - - - - S 35 39 19 21 - - -
27/02:00pm - - - - - S 33 39 18 21 - - -
27/01:30pm - - - - - S 32 35 17 19 - - -
27/01:00pm - - - - - S 28 32 15 17 - - -
27/12:30pm - - - - - S 26 30 14 16 - - -
27/12:00pm - - - - - S 22 24 12 13 - - -
27/11:30am - - - - - S 19 22 10 12 - - -
27/11:00am - - - - - S 19 22 10 12 - - -
27/10:30am - - - - - S 17 19 9 10 - - -
27/10:00am - - - - - SSE 13 15 7 8 - - -
27/09:30am - - - - - SE 11 13 6 7 - - -
27/09:00am - - - - - SE 13 17 7 9 - - -
27/08:30am - - - - - ESE 13 22 7 12 - - -
27/08:00am - - - - - ESE 24 30 13 16 - - -
27/07:30am - - - - - ESE 28 35 15 19 - - -
27/07:00am - - - - - ESE 30 39 16 21 - - -
27/06:30am - - - - - ESE 28 37 15 20 - - -
27/06:00am - - - - - ESE 24 33 13 18 - - -
27/05:30am - - - - - ESE 24 35 13 19 - - -
27/05:00am - - - - - ESE 32 37 17 20 - - -
27/04:30am - - - - - ESE 32 39 17 21 - - -
27/04:00am - - - - - ESE 33 43 18 23 - - -
27/03:30am - - - - - ESE 35 44 19 24 - - -
27/03:00am - - - - - ESE 37 46 20 25 - - -
27/02:30am - - - - - ESE 33 46 18 25 - - -
27/02:00am - - - - - ESE 32 43 17 23 - - -
27/01:30am - - - - - ESE 33 44 18 24 - - -
27/01:00am - - - - - ESE 30 39 16 21 - - -
27/12:30am - - - - - SE 30 39 16 21 - - -
27/12:00am - - - - - SE 35 43 19 23 - - -
 
Date/Time
CDT
Temp
°C
App
Temp
°C
Dew
Point
Rel
Hum
%
Delta-T
°C
Wind Press
QNH
hPa
Press
MSL
hPa
Rain
since 9 am
mm
Dir
 
Spd
km/h
Gust
km/h
Spd
kts
Gust
kts
26/11:30pm - - - - - SE 33 41 18 22 - - -
26/11:00pm - - - - - SSE 32 37 17 20 - - -
26/10:30pm - - - - - SSE 33 41 18 22 - - -
26/10:00pm - - - - - SSE 41 48 22 26 - - -
26/09:30pm - - - - - SSE 41 50 22 27 - - -
26/09:00pm - - - - - SSE 43 48 23 26 - - -
26/08:30pm - - - - - SSE 44 54 24 29 - - -
26/08:00pm - - - - - SSE 44 52 24 28 - - -
26/07:30pm - - - - - SSE 46 54 25 29 - - -
26/07:00pm - - - - - S 44 54 24 29 - - -
26/06:30pm - - - - - S 46 54 25 29 - - -
26/06:00pm - - - - - S 46 54 25 29 - - -

Other Formats:

Comma delimited format used in spreadsheet applications
http://www.bom.gov.au/fwo/IDS60801/IDS60801.95653.axf

JavaScript Object Notation format (JSON) in row-major order
http://www.bom.gov.au/fwo/IDS60801/IDS60801.95653.json